Time;durP1;ratioP1;P1;durP2;ratioP2;P2;SDS_P1;SDS_P2;PMS_P1;PMS_P2;Temp;Humidity;BMP_temperature;BMP_pressure;BME280_temperature;BME280_humidity;BME280_pressure;Samples;Min_cycle;Max_cycle;Signal;HPM_P1;HPM_P2
2023/02/03 00:00:44;;;;;;;18.67;7.55;;;;;;;-0.55;73.36;101449.91;1867055;75;21082;-57
2023/02/03 00:03:13;;;;;;;11.45;3.37;;;;;;;-0.53;73.26;101448.66;1866314;77;21153;-54
2023/02/03 00:05:43;;;;;;;10.00;5.90;;;;;;;-0.54;73.20;101449.05;1867008;75;21572;-59
2023/02/03 00:08:12;;;;;;;9.65;4.62;;;;;;;-0.56;73.17;101450.74;1866351;77;21126;-61
2023/02/03 00:10:41;;;;;;;12.75;6.22;;;;;;;-0.58;73.11;101451.14;1867155;75;21548;-60
2023/02/03 00:13:10;;;;;;;9.03;6.22;;;;;;;-0.62;73.02;101448.92;1866426;77;21051;-58
2023/02/03 00:15:39;;;;;;;10.38;4.58;;;;;;;-0.63;73.02;101451.47;1866402;77;21473;-58
2023/02/03 00:18:07;;;;;;;10.58;5.87;;;;;;;-0.67;73.01;101448.39;1867069;75;21019;-59
2023/02/03 00:20:36;;;;;;;13.30;6.15;;;;;;;-0.68;72.95;101450.51;1866327;77;21141;-53
2023/02/03 00:23:07;;;;;;;12.23;5.33;;;;;;;-0.72;73.17;101440.95;1867066;75;21113;-56
2023/02/03 00:25:36;;;;;;;7.90;4.12;;;;;;;-0.76;73.31;101445.20;1865731;77;21477;-57
2023/02/03 00:28:05;;;;;;;16.67;5.72;;;;;;;-0.83;73.37;101439.06;1871464;75;21187;-57
2023/02/03 00:30:37;;;;;;;14.00;4.87;;;;;;;-0.88;73.52;101439.39;1905704;75;21532;-59
2023/02/03 00:33:06;;;;;;;9.13;4.95;;;;;;;-0.89;73.47;101442.80;1904859;75;21212;-57
2023/02/03 00:35:36;;;;;;;7.20;4.60;;;;;;;-0.90;73.35;101439.78;1905580;75;21095;-57
2023/02/03 00:38:05;;;;;;;9.28;3.27;;;;;;;-0.90;73.25;101442.37;1905347;75;21518;-57
2023/02/03 00:40:33;;;;;;;7.10;4.72;;;;;;;-0.89;73.16;101440.64;1905574;75;21102;-57
2023/02/03 00:43:02;;;;;;;20.97;4.90;;;;;;;-0.90;73.11;101442.37;1905339;75;21109;-62
2023/02/03 00:45:31;;;;;;;9.95;5.67;;;;;;;-0.91;73.11;101438.03;1905502;75;21087;-58
2023/02/03 00:47:59;;;;;;;3.87;3.27;;;;;;;-0.91;73.11;101438.45;1905539;75;21511;-62
2023/02/03 00:50:28;;;;;;;8.40;4.60;;;;;;;-0.94;73.31;101432.81;1873415;76;21063;-60
2023/02/03 00:52:57;;;;;;;6.05;4.03;;;;;;;-0.98;73.22;101430.99;1873391;76;21474;-61
2023/02/03 00:55:27;;;;;;;11.65;6.20;;;;;;;-1.00;73.09;101433.58;1868381;75;21605;-57
2023/02/03 00:57:55;;;;;;;6.58;4.70;;;;;;;-1.01;73.04;101438.70;1887987;76;21124;-61
2023/02/03 01:00:24;;;;;;;8.58;5.35;;;;;;;-1.01;72.97;101436.13;1907533;74;21154;-61
2023/02/03 01:02:53;;;;;;;14.38;7.40;;;;;;;-1.03;72.98;101433.50;1899860;74;21049;-65
2023/02/03 01:05:21;;;;;;;8.10;3.98;;;;;;;-1.06;73.04;101433.86;1898461;74;21183;-64
2023/02/03 01:07:50;;;;;;;3.40;2.62;;;;;;;-1.12;73.22;101429.87;1894610;75;21056;-58
2023/02/03 01:10:19;;;;;;;10.00;3.80;;;;;;;-1.19;73.23;101427.14;1909103;74;21150;-58
2023/02/03 01:12:47;;;;;;;9.60;5.47;;;;;;;-1.21;73.31;101427.97;1927825;74;21113;-61
2023/02/03 01:15:16;;;;;;;8.73;3.95;;;;;;;-1.25;73.24;101421.00;1927631;74;21129;-59
2023/02/03 01:17:45;;;;;;;21.30;10.18;;;;;;;-1.27;73.17;101420.97;1927916;74;21426;-63
2023/02/03 01:20:15;;;;;;;16.12;6.62;;;;;;;-1.32;73.39;101413.53;1926409;74;21106;-60
2023/02/03 01:22:44;;;;;;;5.58;3.45;;;;;;;-1.38;73.57;101414.70;1919423;74;21011;-60
2023/02/03 01:25:13;;;;;;;9.18;4.97;;;;;;;-1.47;73.77;101420.55;1927797;73;21122;-59
2023/02/03 01:27:41;;;;;;;4.92;3.37;;;;;;;-1.57;74.09;101422.07;1901199;74;21050;-61
2023/02/03 01:30:11;;;;;;;9.83;3.98;;;;;;;-1.63;74.27;101415.89;1926913;73;21493;-58
2023/02/03 01:32:39;;;;;;;6.53;3.72;;;;;;;-1.63;74.44;101414.17;1927281;74;21011;-56
2023/02/03 01:35:08;;;;;;;6.58;4.60;;;;;;;-1.56;74.31;101422.94;1927881;74;21156;-58
2023/02/03 01:37:37;;;;;;;36.73;6.47;;;;;;;-1.54;74.09;101422.97;1919956;74;20988;-57
2023/02/03 01:40:06;;;;;;;15.48;7.45;;;;;;;-1.54;74.01;101420.39;1927736;74;21066;-61
2023/02/03 01:42:35;;;;;;;7.15;4.60;;;;;;;-1.53;73.99;101423.41;1927259;74;21060;-57
2023/02/03 01:45:04;;;;;;;12.18;4.67;;;;;;;-1.50;74.01;101428.65;1927848;74;21171;-58
2023/02/03 01:47:48;;;;;;;17.05;8.53;;;;;;;-1.48;73.78;101423.09;1927448;73;21118;-60
2023/02/03 01:50:22;;;;;;;11.68;5.67;;;;;;;-1.48;73.68;101416.63;1928082;74;21118;-59
2023/02/03 01:52:54;;;;;;;10.48;5.80;;;;;;;-1.53;74.09;101422.11;1915322;74;21031;-51
2023/02/03 01:55:26;;;;;;;6.05;3.20;;;;;;;-1.61;73.93;101422.81;1927869;74;21039;-55
2023/02/03 01:58:04;;;;;;;7.62;2.42;;;;;;;-1.65;73.90;101421.02;1926673;74;21611;-57
2023/02/03 02:00:33;;;;;;;4.55;2.30;;;;;;;-1.72;74.26;101415.69;1927862;74;21191;-57
2023/02/03 02:03:04;;;;;;;12.37;7.20;;;;;;;-1.77;74.41;101418.15;1927671;74;21458;-57
2023/02/03 02:05:45;;;;;;;8.85;4.10;;;;;;;-1.81;74.85;101421.11;1927899;74;21176;-53
2023/02/03 02:08:16;;;;;;;7.65;5.28;;;;;;;-1.83;74.95;101416.73;1883379;74;21520;-57
2023/02/03 02:10:46;;;;;;;6.92;2.85;;;;;;;-1.84;75.15;101424.91;1888069;76;21124;-58
2023/02/03 02:13:17;;;;;;;5.55;4.22;;;;;;;-1.82;75.04;101433.98;1888177;74;21039;-60
2023/02/03 02:15:56;;;;;;;9.25;4.28;;;;;;;-1.81;74.84;101433.13;1894704;76;21176;-57
2023/02/03 02:18:27;;;;;;;8.98;5.42;;;;;;;-1.79;74.74;101428.87;1894726;75;21192;-58
2023/02/03 02:21:26;;;;;;;13.35;5.85;;;;;;;-1.79;74.65;101427.57;1891100;74;21094;-54
2023/02/03 02:24:07;;;;;;;6.17;3.72;;;;;;;-1.78;74.84;101431.91;1895675;75;21501;-57
2023/02/03 02:27:03;;;;;;;20.00;5.58;;;;;;;-1.78;74.79;101441.81;1895370;75;21034;-57
2023/02/03 02:29:56;;;;;;;12.23;5.42;;;;;;;-1.77;74.70;101437.52;1895596;75;21074;-58
2023/02/03 02:32:53;;;;;;;10.98;5.75;;;;;;;-1.75;74.64;101441.89;1897660;74;21117;-59
2023/02/03 02:35:45;;;;;;;6.40;3.50;;;;;;;-1.76;74.85;101448.31;1895650;76;21449;-57
2023/02/03 02:38:37;;;;;;;2.55;1.55;;;;;;;-1.78;74.89;101453.86;1895437;76;21155;-58
2023/02/03 02:41:09;;;;;;;7.45;3.70;;;;;;;-1.80;74.88;101445.21;1896872;74;21128;-59
2023/02/03 02:43:57;;;;;;;4.45;2.75;;;;;;;-1.80;74.94;101452.95;1928365;74;21473;-59
2023/02/03 02:46:31;;;;;;;6.80;3.52;;;;;;;-1.84;74.94;101444.70;1928494;74;21097;-58
2023/02/03 02:49:15;;;;;;;1.40;1.30;;;;;;;-1.87;75.04;101440.31;1928760;74;21058;-58
2023/02/03 02:51:47;;;;;;;6.15;2.75;;;;;;;-1.87;75.17;101437.73;1926306;74;21208;-58
2023/02/03 02:54:22;;;;;;;7.50;3.50;;;;;;;-1.85;75.02;101436.05;1928788;74;21055;-58
2023/02/03 02:56:54;;;;;;;5.67;3.27;;;;;;;-1.81;74.82;101437.00;1927522;74;21124;-57
2023/02/03 02:59:24;;;;;;;6.33;2.63;;;;;;;-1.79;74.71;101428.87;1906938;75;21494;-58
2023/02/03 03:01:53;;;;;;;5.83;2.72;;;;;;;-1.79;74.61;101422.02;1906420;75;21592;-59
2023/02/03 03:04:24;;;;;;;5.83;2.17;;;;;;;-1.77;74.55;101419.44;1918697;75;21023;-58
2023/02/03 03:07:11;;;;;;;9.30;3.35;;;;;;;-1.77;74.60;101422.02;1917642;74;21055;-59
2023/02/03 03:09:46;;;;;;;10.38;3.55;;;;;;;-1.78;74.47;101413.84;1918750;75;21454;-59
2023/02/03 03:12:30;;;;;;;8.28;4.40;;;;;;;-1.77;74.40;101416.86;1918248;74;21024;-58
2023/02/03 03:15:01;;;;;;;5.75;3.85;;;;;;;-1.78;74.42;101406.09;1886581;76;21467;-58
2023/02/03 03:17:36;;;;;;;5.17;3.37;;;;;;;-1.79;74.39;101394.91;1885138;75;21032;-58
2023/02/03 03:20:11;;;;;;;3.27;1.67;;;;;;;-1.80;74.41;101391.00;1885986;76;21035;-56
2023/02/03 03:22:42;;;;;;;4.78;2.75;;;;;;;-1.83;74.42;101397.38;1886225;75;21494;-60
2023/02/03 03:25:22;;;;;;;4.70;2.42;;;;;;;-1.88;74.67;101401.55;1915513;75;21032;-57
2023/02/03 03:27:54;;;;;;;19.75;3.50;;;;;;;-1.86;74.50;101397.30;1918892;75;21141;-60
2023/02/03 03:30:26;;;;;;;5.90;3.83;;;;;;;-1.85;74.48;101394.75;1918543;74;21020;-60
2023/02/03 03:32:55;;;;;;;5.08;2.87;;;;;;;-1.81;74.50;101382.78;1918644;75;21087;-60
2023/02/03 03:35:25;;;;;;;10.35;4.47;;;;;;;-1.79;74.34;101391.43;1915686;75;21007;-59
2023/02/03 03:38:00;;;;;;;4.30;2.17;;;;;;;-1.82;74.40;101393.97;1918666;74;21031;-58
2023/02/03 03:40:31;;;;;;;5.92;3.85;;;;;;;-1.81;74.35;101403.44;1918479;74;21024;-59
2023/02/03 03:43:05;;;;;;;6.30;2.25;;;;;;;-1.79;74.28;101407.81;1880851;75;21011;-57
2023/02/03 03:45:46;;;;;;;6.47;2.83;;;;;;;-1.78;74.14;101412.55;1876319;76;21541;-57
2023/02/03 03:48:23;;;;;;;20.05;5.30;;;;;;;-1.79;74.07;101417.25;1876113;75;21044;-59
2023/02/03 03:50:54;;;;;;;9.90;3.22;;;;;;;-1.80;74.03;101414.23;1876157;76;21043;-59
2023/02/03 03:53:25;;;;;;;9.35;4.92;;;;;;;-1.83;74.03;101412.86;1879320;75;21188;-57
2023/02/03 03:55:56;;;;;;;11.25;4.67;;;;;;;-1.85;74.09;101417.12;1876519;75;21050;-58
2023/02/03 03:58:27;;;;;;;9.00;4.30;;;;;;;-1.87;74.02;101400.73;1880175;75;21540;-59
2023/02/03 04:00:58;;;;;;;7.62;4.42;;;;;;;-1.87;74.02;101398.14;1841425;78;21026;-58
2023/02/03 04:03:42;;;;;;;16.48;4.62;;;;;;;-1.93;74.05;101396.73;1879755;75;21043;-57
2023/02/03 04:06:11;;;;;;;12.95;4.97;;;;;;;-1.98;74.17;101395.31;1876718;76;21027;-56
2023/02/03 04:08:40;;;;;;;4.75;2.75;;;;;;;-2.00;74.33;101395.28;1876709;76;21479;-56
2023/02/03 04:11:09;;;;;;;3.83;3.42;;;;;;;-2.00;74.33;101406.89;1876559;76;21109;-55
2023/02/03 04:13:37;;;;;;;6.90;2.92;;;;;;;-1.99;74.29;101416.82;1896656;75;21043;-56
2023/02/03 04:16:06;;;;;;;6.60;3.37;;;;;;;-1.99;74.40;101428.01;1918953;75;21571;-56
2023/02/03 04:18:35;;;;;;;4.10;2.62;;;;;;;-2.07;74.72;101410.59;1919185;75;21082;-56
2023/02/03 04:21:04;;;;;;;8.98;3.12;;;;;;;-2.17;74.76;101402.63;1919082;75;21040;-56
2023/02/03 04:23:33;;;;;;;15.63;4.00;;;;;;;-2.21;74.97;101402.54;1916009;75;21079;-57
2023/02/03 04:26:01;;;;;;;5.67;2.72;;;;;;;-2.22;75.03;101399.49;1919038;75;21036;-57
2023/02/03 04:28:30;;;;;;;4.45;2.80;;;;;;;-2.19;74.89;101402.16;1919122;75;21120;-57
2023/02/03 04:31:01;;;;;;;11.55;3.52;;;;;;;-2.14;74.75;101396.66;1919091;75;21039;-57
2023/02/03 04:33:30;;;;;;;6.30;2.83;;;;;;;-2.10;74.69;101385.99;1919100;75;21039;-57
2023/02/03 04:35:58;;;;;;;11.18;3.70;;;;;;;-2.06;74.63;101386.55;1919134;75;21039;-59
2023/02/03 04:38:27;;;;;;;8.70;3.42;;;;;;;-2.04;74.61;101388.73;1919284;75;21105;-58
2023/02/03 04:40:56;;;;;;;5.67;2.72;;;;;;;-2.01;74.56;101393.55;1919134;75;21032;-58
2023/02/03 04:43:24;;;;;;;20.10;3.12;;;;;;;-2.00;74.50;101395.28;1878948;75;21118;-57
2023/02/03 04:45:53;;;;;;;6.37;3.67;;;;;;;-1.98;74.47;101391.02;1876547;75;21055;-58
2023/02/03 04:48:21;;;;;;;5.95;4.10;;;;;;;-1.98;74.93;101403.92;1876585;76;21603;-58
2023/02/03 04:50:50;;;;;;;3.42;2.20;;;;;;;-1.98;74.80;101398.77;1887457;75;21031;-60
2023/02/03 04:53:19;;;;;;;7.67;3.60;;;;;;;-1.93;74.81;101400.60;1918070;75;21113;-58
2023/02/03 04:55:48;;;;;;;4.05;2.85;;;;;;;-1.91;74.70;101397.63;1919034;74;21044;-58
2023/02/03 04:58:17;;;;;;;5.00;2.67;;;;;;;-1.87;74.67;101400.30;1919815;74;21488;-48
2023/02/03 05:00:45;;;;;;;2.50;1.50;;;;;;;-1.80;74.67;101400.03;1928662;74;21003;-51
2023/02/03 05:03:14;;;;;;;7.75;2.92;;;;;;;-1.61;74.96;101412.48;1917649;74;21003;-57
2023/02/03 05:05:43;;;;;;;3.98;2.40;;;;;;;-1.52;74.87;101427.75;1900721;74;21058;-55
2023/02/03 05:08:11;;;;;;;3.72;2.25;;;;;;;-1.62;74.90;101421.09;1914421;74;21112;-56
2023/02/03 05:10:40;;;;;;;5.87;2.67;;;;;;;-1.67;74.94;101413.66;1895516;76;21123;-55
2023/02/03 05:13:08;;;;;;;6.65;3.47;;;;;;;-1.67;74.99;101413.66;1915673;74;21116;-54
2023/02/03 05:15:37;;;;;;;9.18;4.37;;;;;;;-1.65;74.84;101413.27;1928793;74;21027;-54
2023/02/03 05:18:05;;;;;;;17.95;4.45;;;;;;;-1.66;75.01;101401.21;1928124;74;21055;-57
2023/02/03 05:20:34;;;;;;;3.72;2.65;;;;;;;-1.61;74.96;101394.41;1912261;74;21029;-55
2023/02/03 05:23:03;;;;;;;9.65;3.42;;;;;;;-1.56;75.06;101402.27;1895385;74;21048;-55
2023/02/03 05:25:32;;;;;;;6.90;3.62;;;;;;;-1.47;75.00;101406.77;1901690;74;21107;-56
2023/02/03 05:28:00;;;;;;;5.97;3.90;;;;;;;-1.38;74.97;101399.20;1895577;76;21029;-56
2023/02/03 05:30:29;;;;;;;2.30;1.77;;;;;;;-1.26;74.90;101399.44;1895429;76;21052;-54
2023/02/03 05:32:57;;;;;;;7.45;4.40;;;;;;;-1.15;74.76;101399.65;1895521;76;21024;-55
2023/02/03 05:35:26;;;;;;;16.17;5.58;;;;;;;-1.07;74.58;101404.97;1895357;76;21048;-57
2023/02/03 05:37:55;;;;;;;17.35;6.53;;;;;;;-1.08;74.62;101404.53;1918074;73;21074;-57
2023/02/03 05:43:10;;;;;;;5.92;3.90;;;;;;;-0.91;74.67;101414.76;1928528;74;21072;-58
2023/02/03 05:45:38;;;;;;;15.40;5.30;;;;;;;-0.81;74.49;101414.53;1926616;74;21104;-58
2023/02/03 05:48:07;;;;;;;13.62;5.30;;;;;;;-0.74;74.42;101407.73;1926714;74;21042;-56
2023/02/03 05:50:36;;;;;;;27.22;5.25;;;;;;;-0.69;74.47;101404.81;1926754;74;21043;-60
2023/02/03 05:53:11;;;;;;;8.58;3.72;;;;;;;-0.62;74.41;101392.45;1926844;74;21046;-57
2023/02/03 05:55:40;;;;;;;11.12;4.15;;;;;;;-0.53;74.33;101387.42;1926761;74;21034;-52
2023/02/03 05:58:08;;;;;;;16.07;5.28;;;;;;;-0.46;74.14;101372.45;1926731;74;21058;-54
2023/02/03 06:00:37;;;;;;;7.87;2.92;;;;;;;-0.39;74.09;101370.82;1908042;74;21091;-58
2023/02/03 06:03:06;;;;;;;10.25;4.10;;;;;;;-0.31;73.97;101358.03;1892972;75;21047;-57
2023/02/03 06:05:39;;;;;;;9.15;4.42;;;;;;;-0.26;73.89;101356.36;1898742;75;21044;-58
2023/02/03 06:08:06;;;;;;;11.63;5.47;;;;;;;-0.23;73.75;101351.23;1896044;74;21028;-57
2023/02/03 06:10:35;;;;;;;11.55;5.35;;;;;;;-0.23;73.55;101346.06;1888117;75;21043;-57
2023/02/03 06:13:15;;;;;;;11.80;6.95;;;;;;;-0.22;73.48;101356.45;1904752;75;21189;-57
2023/02/03 06:15:44;;;;;;;10.03;5.87;;;;;;;-0.22;73.50;101365.94;1904829;75;21262;-58
2023/02/03 06:18:12;;;;;;;12.82;8.00;;;;;;;-0.21;73.64;101374.12;1904735;75;21048;-58
2023/02/03 06:20:41;;;;;;;12.33;5.67;;;;;;;-0.16;73.70;101382.84;1904787;75;21012;-57
2023/02/03 06:23:10;;;;;;;8.63;5.50;;;;;;;-0.11;73.80;101382.50;1904653;75;21052;-57
2023/02/03 06:25:39;;;;;;;19.42;9.25;;;;;;;-0.06;73.78;101382.11;1904748;75;21602;-57
2023/02/03 06:28:08;;;;;;;13.95;9.40;;;;;;;0.01;73.68;101388.70;1904556;75;21004;-58
2023/02/03 06:30:37;;;;;;;23.20;7.67;;;;;;;0.03;73.74;101387.86;1906002;74;21024;-59
2023/02/03 06:33:05;;;;;;;14.38;5.35;;;;;;;0.08;73.64;101385.36;1906300;75;21044;-58
2023/02/03 06:35:34;;;;;;;19.25;6.62;;;;;;;0.15;73.58;101390.64;1906230;74;21180;-57
2023/02/03 06:38:02;;;;;;;22.52;6.28;;;;;;;0.23;73.50;101382.11;1906403;75;21102;-56
2023/02/03 06:40:31;;;;;;;15.95;7.03;;;;;;;0.27;73.49;101379.56;1906436;75;21109;-59
2023/02/03 06:43:00;;;;;;;21.65;7.05;;;;;;;0.35;73.46;101383.14;1906295;75;21467;-61
2023/02/03 06:45:28;;;;;;;16.60;5.92;;;;;;;0.49;73.37;101381.15;1890993;75;21089;-59
2023/02/03 06:47:57;;;;;;;18.82;7.62;;;;;;;0.60;73.26;101379.56;1883649;75;21033;-58
2023/02/03 06:50:25;;;;;;;22.30;7.75;;;;;;;0.72;73.18;101380.12;1874108;75;21591;-59
2023/02/03 06:52:54;;;;;;;28.42;6.55;;;;;;;0.86;73.00;101388.06;1881208;75;21113;-58
2023/02/03 06:55:23;;;;;;;15.10;6.33;;;;;;;0.94;72.91;101387.71;1896418;75;21035;-55
2023/02/03 06:57:51;;;;;;;5.78;3.37;;;;;;;1.01;72.92;101376.55;1905369;73;21105;-56
2023/02/03 07:00:20;;;;;;;10.72;4.37;;;;;;;0.98;72.83;101377.84;1912870;74;21154;-56
2023/02/03 07:02:58;;;;;;;11.68;4.53;;;;;;;0.99;72.88;101370.48;1928724;74;21113;-58
2023/02/03 07:05:27;;;;;;;14.98;4.95;;;;;;;0.99;73.00;101370.92;1928717;74;21012;-58
2023/02/03 07:07:56;;;;;;;12.20;5.75;;;;;;;0.99;73.22;101370.48;1928884;74;21051;-58
2023/02/03 07:10:25;;;;;;;17.23;5.42;;;;;;;1.05;73.14;101358.90;1928801;74;21191;-59
2023/02/03 07:12:53;;;;;;;10.18;5.03;;;;;;;1.12;72.99;101363.70;1928748;74;21035;-59
2023/02/03 07:15:22;;;;;;;11.35;6.12;;;;;;;1.12;73.06;101364.56;1928638;74;21075;-56
2023/02/03 07:17:53;;;;;;;9.95;5.50;;;;;;;1.11;73.04;101366.73;1928757;74;21120;-58
2023/02/03 07:20:22;;;;;;;7.75;4.45;;;;;;;1.09;73.17;101368.44;1928856;74;21035;-59
2023/02/03 07:22:56;;;;;;;11.73;6.67;;;;;;;1.10;73.26;101357.20;1928862;74;21035;-56
2023/02/03 07:25:25;;;;;;;20.68;6.50;;;;;;;1.14;73.39;101366.77;1928704;73;21164;-58
2023/02/03 07:27:54;;;;;;;6.85;5.12;;;;;;;1.17;73.39;101354.69;1928729;74;21539;-60
2023/02/03 07:30:23;;;;;;;12.98;6.55;;;;;;;1.23;73.30;101354.30;1928780;74;21047;-56
2023/02/03 07:32:53;;;;;;;8.03;4.53;;;;;;;1.28;73.19;101351.32;1928848;74;21464;-59
2023/02/03 07:35:21;;;;;;;15.58;5.50;;;;;;;1.32;73.14;101344.44;1928874;74;21011;-55
2023/02/03 07:37:50;;;;;;;10.08;6.12;;;;;;;1.36;73.00;101344.89;1909256;74;21062;-55
2023/02/03 07:40:19;;;;;;;19.23;6.75;;;;;;;1.40;72.99;101346.66;1899292;74;21204;-55
2023/02/03 07:42:49;;;;;;;11.73;6.20;;;;;;;1.46;72.92;101344.12;1895590;76;21548;-55
2023/02/03 07:45:19;;;;;;;21.45;8.38;;;;;;;1.50;72.73;101344.59;1895545;76;21473;-54
2023/02/03 07:47:47;;;;;;;22.22;7.05;;;;;;;1.57;72.62;101347.22;1905642;73;21007;-57
2023/02/03 07:50:16;;;;;;;14.58;5.58;;;;;;;1.61;72.64;101349.01;1916500;74;21051;-56
2023/02/03 07:52:45;;;;;;;13.65;5.67;;;;;;;1.66;72.74;101349.88;1918067;74;21086;-56
2023/02/03 07:55:13;;;;;;;15.23;5.22;;;;;;;1.72;72.69;101351.25;1922998;74;21717;-65
2023/02/03 07:57:43;;;;;;;6.70;4.12;;;;;;;1.74;72.64;101344.33;1896036;74;21026;-69
2023/02/03 08:00:14;;;;;;;7.20;3.67;;;;;;;1.80;72.59;101337.88;1903953;74;21097;-63
2023/02/03 08:02:44;;;;;;;9.85;4.35;;;;;;;1.83;72.56;101335.31;1906495;74;21212;-65
2023/02/03 08:05:13;;;;;;;8.63;5.20;;;;;;;1.80;72.58;101335.72;1905557;75;21125;-60
2023/02/03 08:07:42;;;;;;;21.57;8.95;;;;;;;1.75;72.64;101334.38;1900306;75;21138;-55
2023/02/03 08:10:14;;;;;;;17.48;9.38;;;;;;;1.72;72.67;101335.23;1873390;76;21032;-54
2023/02/03 08:12:43;;;;;;;17.30;8.77;;;;;;;1.74;72.66;101334.81;1886991;75;21012;-51
2023/02/03 08:15:12;;;;;;;13.90;6.70;;;;;;;1.78;72.58;101327.91;1898641;75;21079;-51
2023/02/03 08:17:43;;;;;;;20.15;8.95;;;;;;;1.81;72.65;101317.55;1879401;75;21460;-59
2023/02/03 08:20:12;;;;;;;11.35;6.20;;;;;;;1.83;72.62;101319.73;1878181;75;21134;-59
2023/02/03 08:22:41;;;;;;;10.55;5.45;;;;;;;1.86;72.59;101319.76;1903991;75;21138;-60
2023/02/03 08:25:10;;;;;;;12.93;6.28;;;;;;;1.92;72.56;101320.22;1903948;75;21040;-58
2023/02/03 08:27:39;;;;;;;13.65;6.10;;;;;;;1.97;72.51;101317.63;1903841;75;21138;-60
2023/02/03 08:30:10;;;;;;;5.83;4.70;;;;;;;2.02;72.46;101314.20;1903944;75;21047;-61
2023/02/03 08:32:39;;;;;;;14.13;6.08;;;;;;;2.08;72.44;101312.92;1897563;75;21517;-57
2023/02/03 08:35:08;;;;;;;10.08;5.25;;;;;;;2.11;72.42;101311.65;1888537;75;21165;-53
2023/02/03 08:37:37;;;;;;;15.93;7.05;;;;;;;2.13;72.46;101323.35;1904004;75;21486;-55
2023/02/03 08:40:07;;;;;;;14.25;6.78;;;;;;;2.18;72.51;101312.56;1901021;75;21545;-58
2023/02/03 08:42:36;;;;;;;7.37;5.40;;;;;;;2.26;72.51;101304.35;1886760;75;21164;-61
2023/02/03 08:45:05;;;;;;;15.10;6.70;;;;;;;2.33;72.59;101305.70;1880504;75;21093;-61
2023/02/03 08:47:35;;;;;;;11.97;6.28;;;;;;;2.36;72.51;101288.80;1902916;75;21106;-58
2023/02/03 08:50:06;;;;;;;11.60;5.95;;;;;;;2.42;72.45;101279.74;1895769;75;21447;-59
2023/02/03 08:52:35;;;;;;;16.12;5.97;;;;;;;2.43;72.55;101281.02;1905525;75;21185;-59
2023/02/03 08:55:05;;;;;;;8.90;5.47;;;;;;;2.49;72.50;101273.67;1905548;75;21204;-58
2023/02/03 08:57:38;;;;;;;15.03;6.83;;;;;;;2.53;72.50;101266.34;1884823;75;21105;-60
2023/02/03 09:00:09;;;;;;;22.73;7.17;;;;;;;2.57;72.50;101249.02;1873279;76;21530;-59
2023/02/03 09:02:37;;;;;;;13.30;8.53;;;;;;;2.59;72.46;101246.84;1873360;76;21165;-58
2023/02/03 09:05:06;;;;;;;15.60;7.75;;;;;;;2.58;72.48;101251.59;1873327;76;21154;-58
2023/02/03 09:07:35;;;;;;;14.78;6.35;;;;;;;2.56;72.49;101243.37;1874059;75;21080;-58
2023/02/03 09:10:05;;;;;;;13.90;7.25;;;;;;;2.59;72.51;101223.89;1873272;76;21186;-56
2023/02/03 09:12:33;;;;;;;12.82;6.25;;;;;;;2.61;72.62;101220.41;1873297;76;21115;-59
2023/02/03 09:15:02;;;;;;;15.55;7.00;;;;;;;2.67;72.70;101212.64;1873346;76;21104;-60
2023/02/03 09:17:31;;;;;;;14.83;7.35;;;;;;;2.66;72.92;101210.89;1879123;75;21182;-59
2023/02/03 09:19:59;;;;;;;15.15;7.65;;;;;;;2.66;73.15;101216.09;1903982;75;21095;-62
2023/02/03 09:22:30;;;;;;;15.48;7.85;;;;;;;2.73;73.18;101213.48;1902638;75;21071;-61
2023/02/03 09:24:58;;;;;;;16.48;8.28;;;;;;;2.80;73.11;101207.42;1874140;75;21641;-61
2023/02/03 09:27:27;;;;;;;15.98;7.97;;;;;;;2.86;73.08;101213.52;1873277;76;21041;-57
2023/02/03 09:29:57;;;;;;;14.60;7.85;;;;;;;2.94;73.16;101223.05;1879145;75;21080;-58
2023/02/03 09:32:26;;;;;;;18.05;8.60;;;;;;;2.97;73.23;101229.13;1905341;75;21127;-59
2023/02/03 09:34:55;;;;;;;15.08;8.20;;;;;;;2.98;73.41;101219.14;1893723;75;21107;-58
2023/02/03 09:37:23;;;;;;;19.27;9.85;;;;;;;2.99;73.48;101214.38;1877118;75;21087;-58
2023/02/03 09:39:52;;;;;;;19.00;8.75;;;;;;;3.01;73.51;101216.55;1884248;75;21047;-58
2023/02/03 09:42:24;;;;;;;15.20;7.17;;;;;;;2.93;73.58;101279.39;1878477;75;22237;-56
2023/02/03 09:45:11;;;;;;;13.70;6.45;;;;;;;2.81;73.76;101291.10;1902383;74;21083;-56
2023/02/03 09:47:42;;;;;;;6.70;3.70;;;;;;;2.70;73.92;101292.38;1917242;74;21093;-56
2023/02/03 09:50:16;;;;;;;4.75;2.60;;;;;;;2.65;73.96;101287.59;1894846;75;21015;-60
2023/02/03 09:52:46;;;;;;;2.58;1.77;;;;;;;2.61;74.23;101293.21;1895999;75;21174;-59
2023/02/03 09:55:26;;;;;;;4.03;2.35;;;;;;;2.60;74.45;101290.20;1904087;75;21451;-58
2023/02/03 09:58:11;;;;;;;3.95;2.22;;;;;;;2.55;74.72;101285.41;1917990;74;21105;-58
2023/02/03 10:00:51;;;;;;;4.33;2.27;;;;;;;2.50;75.08;101281.92;1917139;75;21462;-57
2023/02/03 10:03:38;;;;;;;5.17;2.33;;;;;;;2.47;75.27;101285.80;1892195;75;21099;-55
2023/02/03 10:06:09;;;;;;;2.45;1.47;;;;;;;2.43;75.29;101281.02;1913522;75;21126;-57
2023/02/03 10:08:57;;;;;;;3.20;1.25;;;;;;;2.42;75.44;101274.55;1905881;73;21105;-57
2023/02/03 10:11:28;;;;;;;1.62;1.02;;;;;;;2.40;75.76;101273.64;1894128;75;21126;-59
2023/02/03 10:14:00;;;;;;;0.50;0.50;;;;;;;2.38;75.96;101261.97;1917220;74;21035;-58
2023/02/03 10:16:54;;;;;;;0.90;0.73;;;;;;;2.34;76.26;101255.00;1917565;75;21086;-62
2023/02/03 10:19:25;;;;;;;3.37;0.75;;;;;;;2.32;76.53;101264.53;1832956;77;21206;-57
2023/02/03 10:22:00;;;;;;;1.57;0.90;;;;;;;2.34;76.76;101265.84;1890883;75;21145;-61
2023/02/03 10:24:53;;;;;;;4.60;1.10;;;;;;;2.36;76.74;101252.00;1904828;74;21480;-57
2023/02/03 10:27:24;;;;;;;4.60;1.27;;;;;;;2.41;76.66;101250.70;1916293;74;21237;-56
2023/02/03 10:30:05;;;;;;;0.72;0.70;;;;;;;2.41;76.88;101233.80;1917939;75;21118;-54
2023/02/03 10:32:34;;;;;;;0.93;0.60;;;;;;;2.42;76.94;101236.86;1909946;74;21228;-61
2023/02/03 10:35:07;;;;;;;0.30;0.30;;;;;;;2.44;77.45;101214.33;1893680;75;21117;-59
2023/02/03 10:37:39;;;;;;;0.30;0.30;;;;;;;2.43;78.44;101208.24;1917611;74;21677;-60
2023/02/03 10:40:10;;;;;;;1.30;0.57;;;;;;;2.47;78.26;101193.11;1906402;74;21200;-55
2023/02/03 10:45:26;;;;;;;1.40;1.30;;;;;;;2.64;79.03;101178.83;1884134;75;21019;-55
2023/02/03 10:47:55;;;;;;;0.80;0.60;;;;;;;2.79;79.72;101179.70;1878295;76;21224;-55
2023/02/03 10:50:31;;;;;;;1.75;1.17;;;;;;;2.90;79.85;101180.56;1913339;75;21106;-55
2023/02/03 10:53:20;;;;;;;2.17;1.32;;;;;;;3.01;79.85;101170.16;1915003;74;21506;-55
2023/02/03 10:55:52;;;;;;;0.60;0.60;;;;;;;3.12;79.81;101172.72;1886429;75;21043;-55
2023/02/03 10:58:29;;;;;;;0.30;0.30;;;;;;;3.20;79.95;101177.50;1884437;76;21016;-57
2023/02/03 11:01:06;;;;;;;1.90;0.50;;;;;;;3.26;79.86;101165.77;1883887;75;21086;-55
2023/02/03 11:03:35;;;;;;;1.40;0.80;;;;;;;3.32;79.68;101161.87;1892825;74;21118;-56
2023/02/03 11:06:17;;;;;;;1.25;0.88;;;;;;;3.39;79.45;101153.59;1829857;76;21149;-56
2023/02/03 11:08:49;;;;;;;0.90;0.80;;;;;;;3.41;79.39;101160.54;1903990;75;21011;-54
2023/02/03 11:11:26;;;;;;;1.25;0.85;;;;;;;3.42;79.39;101145.78;1889674;75;21074;-58
2023/02/03 11:14:04;;;;;;;4.15;0.70;;;;;;;3.48;79.38;101149.20;1883825;74;21039;-56
2023/02/03 11:16:36;;;;;;;1.27;0.60;;;;;;;3.57;79.40;101147.02;1842375;77;21195;-59
2023/02/03 11:19:10;;;;;;;1.98;0.90;;;;;;;3.65;79.44;101141.36;1840666;77;21569;-59
2023/02/03 11:21:41;;;;;;;0.30;0.30;;;;;;;3.73;79.36;101138.72;1898268;74;21208;-60
2023/02/03 11:24:18;;;;;;;1.40;0.60;;;;;;;3.77;79.28;101132.61;1890728;75;21181;-60
2023/02/03 11:26:53;;;;;;;0.62;0.57;;;;;;;3.78;79.24;101135.66;1899032;75;21066;-59
2023/02/03 11:29:30;;;;;;;1.92;0.65;;;;;;;3.80;79.32;101128.70;1899634;75;21195;-61
2023/02/03 11:32:01;;;;;;;0.50;0.50;;;;;;;3.81;79.25;101130.42;1916766;75;21012;-61
2023/02/03 11:34:33;;;;;;;0.47;0.42;;;;;;;3.83;79.22;101130.41;1893590;75;21500;-60
2023/02/03 11:37:40;;;;;;;0.53;0.53;;;;;;;3.85;79.23;101136.06;1916583;74;21498;-60
2023/02/03 11:40:13;;;;;;;0.60;0.60;;;;;;;3.92;79.19;101132.12;1915840;75;21067;-60
2023/02/03 11:42:48;;;;;;;0.47;0.40;;;;;;;4.00;79.11;101139.44;1908134;75;21035;-59
2023/02/03 11:45:44;;;;;;;0.72;0.40;;;;;;;4.05;79.16;101137.69;1880708;75;21477;-57
2023/02/03 11:48:22;;;;;;;0.45;0.40;;;;;;;4.10;79.11;101124.19;1906788;74;21087;-58
2023/02/03 11:51:10;;;;;;;1.82;0.53;;;;;;;4.17;78.99;101119.38;1900899;75;21223;-56